Time;durP1;ratioP1;P1;durP2;ratioP2;P2;SDS_P1;SDS_P2;PMS_P1;PMS_P2;Temp;Humidity;BMP_temperature;BMP_pressure;BME280_temperature;BME280_humidity;BME280_pressure;Samples;Min_cycle;Max_cycle;Signal;HPM_P1;HPM_P2
2023/06/20 00:01:40;;;;;;;20.50;12.20;;;;;;;13.99;100.00;100182.77;105050;1261;72699;-67
2023/06/20 00:04:07;;;;;;;17.10;10.70;;;;;;;13.95;100.00;100180.89;105510;1262;60313;-67
2023/06/20 00:06:34;;;;;;;19.60;10.00;;;;;;;13.91;100.00;100182.23;105192;1261;60454;-64
2023/06/20 00:09:01;;;;;;;19.40;10.30;;;;;;;13.85;100.00;100191.72;105144;1258;73931;-70
2023/06/20 00:11:28;;;;;;;22.00;9.50;;;;;;;13.79;100.00;100194.95;104922;1261;67085;-65
2023/06/20 00:13:55;;;;;;;18.00;10.90;;;;;;;13.74;100.00;100197.58;104982;1261;71151;-66
2023/06/20 00:16:24;;;;;;;18.50;10.80;;;;;;;13.68;100.00;100199.73;105351;1257;60549;-69
2023/06/20 00:18:54;;;;;;;21.40;11.30;;;;;;;13.64;100.00;100197.89;105470;1261;60432;-67
2023/06/20 00:21:25;;;;;;;20.50;11.30;;;;;;;13.61;100.00;100194.98;105178;1257;73145;-65
2023/06/20 00:23:53;;;;;;;21.00;12.00;;;;;;;13.56;100.00;100199.27;105191;1258;65913;-66
2023/06/20 00:26:21;;;;;;;14.00;10.00;;;;;;;13.52;100.00;100195.52;105160;1274;72724;-66
2023/06/20 00:28:51;;;;;;;22.40;13.30;;;;;;;13.48;100.00;100191.35;105075;1263;60514;-66
2023/06/20 00:31:18;;;;;;;20.80;12.00;;;;;;;13.42;100.00;100188.89;105032;1257;61032;-66
2023/06/20 00:33:45;;;;;;;19.00;11.10;;;;;;;13.37;100.00;100191.31;104980;1263;74617;-65
2023/06/20 00:36:13;;;;;;;16.90;11.60;;;;;;;13.32;100.00;100193.41;105515;1257;67246;-70
2023/06/20 00:38:40;;;;;;;17.70;11.70;;;;;;;13.25;100.00;100192.73;104953;1257;72005;-70
2023/06/20 00:41:08;;;;;;;21.30;12.80;;;;;;;13.19;100.00;100196.89;105018;1262;62000;-66
2023/06/20 00:43:35;;;;;;;20.90;11.70;;;;;;;13.13;100.00;100196.31;104919;1259;60492;-65
2023/06/20 00:46:02;;;;;;;21.60;12.40;;;;;;;13.11;100.00;100200.63;105151;1258;73694;-65
2023/06/20 00:48:29;;;;;;;21.80;12.60;;;;;;;13.10;100.00;100201.06;105884;1257;65711;-70
2023/06/20 00:50:56;;;;;;;18.90;12.80;;;;;;;13.10;100.00;100203.96;105211;1258;71469;-65
2023/06/20 00:53:23;;;;;;;21.70;11.30;;;;;;;13.11;100.00;100206.63;105326;1269;60425;-64
2023/06/20 00:55:51;;;;;;;22.40;12.70;;;;;;;13.11;100.00;100206.75;105191;1257;60605;-68
2023/06/20 00:58:19;;;;;;;16.50;11.00;;;;;;;13.10;100.00;100210.73;105055;1260;73763;-64
2023/06/20 01:00:46;;;;;;;19.80;10.70;;;;;;;13.07;100.00;100207.60;105323;1257;67853;-66
2023/06/20 01:03:13;;;;;;;19.30;11.90;;;;;;;13.03;100.00;100207.14;105632;1260;72578;-67
2023/06/20 01:05:41;;;;;;;19.50;10.70;;;;;;;12.98;100.00;100204.00;105098;1260;60510;-66
2023/06/20 01:08:22;;;;;;;17.50;10.50;;;;;;;12.92;100.00;100207.13;105178;1257;60903;-66
2023/06/20 01:10:53;;;;;;;;;;;;;;;12.85;100.00;100204.98;105234;1264;74529;-64
2023/06/20 01:13:39;;;;;;;22.20;10.90;;;;;;;12.79;100.00;100205.70;105463;1257;65765;-65
2023/06/20 01:16:34;;;;;;;17.60;10.40;;;;;;;12.74;100.00;100205.13;105108;1263;72626;-69
2023/06/20 01:19:35;;;;;;;15.80;10.10;;;;;;;12.69;100.00;100208.02;105257;1258;60380;-66
2023/06/20 01:22:05;;;;;;;;;;;;;;;12.65;100.00;100207.01;105177;1257;60464;-66
2023/06/20 01:24:39;;;;;;;17.40;10.90;;;;;;;12.62;100.00;100200.20;105161;1257;72684;-68
2023/06/20 01:27:20;;;;;;;19.10;10.60;;;;;;;12.59;100.00;100200.59;105467;1258;66040;-68
2023/06/20 01:30:01;;;;;;;18.40;10.90;;;;;;;12.59;100.00;100201.36;104945;1263;72774;-65
2023/06/20 01:32:29;;;;;;;17.80;10.00;;;;;;;12.57;100.00;100202.39;105553;1257;60550;-66
2023/06/20 01:35:09;;;;;;;18.50;11.50;;;;;;;12.55;100.00;100205.97;105365;1257;60470;-70
2023/06/20 01:37:38;;;;;;;17.50;11.20;;;;;;;12.55;100.00;100204.08;104873;1257;73035;-65
2023/06/20 01:40:07;;;;;;;20.40;10.20;;;;;;;12.56;100.00;100206.77;105115;1261;66081;-67
2023/06/20 01:42:34;;;;;;;20.00;10.60;;;;;;;12.59;100.00;100207.79;105308;1257;71416;-67
2023/06/20 01:45:02;;;;;;;19.90;12.10;;;;;;;12.61;100.00;100205.42;105051;1264;60439;-66
2023/06/20 01:47:30;;;;;;;19.20;11.30;;;;;;;12.63;100.00;100205.31;105279;1264;60378;-65
2023/06/20 01:49:57;;;;;;;18.50;11.00;;;;;;;12.65;100.00;100206.11;105042;1260;73946;-66
2023/06/20 01:52:26;;;;;;;19.70;10.90;;;;;;;12.67;100.00;100202.87;105369;1266;65884;-65
2023/06/20 01:54:53;;;;;;;14.30;10.20;;;;;;;12.72;100.00;100204.92;105089;1263;73112;-67
2023/06/20 01:57:21;;;;;;;21.10;11.60;;;;;;;12.79;100.00;100210.81;105029;1264;62339;-65
2023/06/20 01:59:49;;;;;;;19.00;12.00;;;;;;;12.90;100.00;100209.14;105127;1257;60491;-65
2023/06/20 02:02:17;;;;;;;20.80;11.70;;;;;;;13.22;100.00;100211.64;105020;1257;72582;-66
2023/06/20 02:04:45;;;;;;;17.90;10.90;;;;;;;13.69;100.00;100206.94;105585;1258;66777;-71
2023/06/20 02:07:12;;;;;;;19.20;11.70;;;;;;;14.25;100.00;100203.14;104936;1264;73036;-65
2023/06/20 02:09:42;;;;;;;20.90;12.20;;;;;;;14.84;100.00;100196.85;104896;1262;62103;-65
2023/06/20 02:12:09;;;;;;;17.30;11.10;;;;;;;15.40;100.00;100193.17;105180;1257;60437;-64
2023/06/20 02:14:37;;;;;;;20.10;11.70;;;;;;;15.98;100.00;100188.01;105074;1258;73786;-68
2023/06/20 02:17:04;;;;;;;16.80;10.50;;;;;;;16.54;100.00;100183.45;105056;1261;67828;-69
2023/06/20 02:19:31;;;;;;;21.50;11.00;;;;;;;17.07;100.00;100182.67;105014;1258;73185;-66
2023/06/20 02:21:59;;;;;;;16.60;10.10;;;;;;;17.60;100.00;100178.95;105646;1257;60540;-66
2023/06/20 02:24:27;;;;;;;20.90;9.80;;;;;;;18.12;100.00;100176.14;105060;1257;60428;-64
2023/06/20 02:26:54;;;;;;;15.80;10.50;;;;;;;18.70;100.00;100177.79;105450;1256;74003;-66
2023/06/20 02:29:21;;;;;;;17.80;10.40;;;;;;;19.20;100.00;100176.33;105267;1258;67101;-67
2023/06/20 02:31:48;;;;;;;18.30;10.60;;;;;;;19.63;100.00;100170.44;104962;1263;72417;-66
2023/06/20 02:34:18;;;;;;;15.10;10.00;;;;;;;20.14;100.00;100163.28;105489;1259;60479;-67
2023/06/20 02:36:46;;;;;;;15.60;9.10;;;;;;;20.66;100.00;100161.98;104885;1263;60442;-67
2023/06/20 02:39:13;;;;;;;16.10;9.10;;;;;;;21.11;100.00;100164.13;105146;1257;74508;-66
2023/06/20 02:41:43;;;;;;;14.40;8.60;;;;;;;21.48;100.00;100163.43;104991;1262;66688;-65
2023/06/20 02:44:10;;;;;;;14.90;9.30;;;;;;;21.80;100.00;100165.42;105033;1258;71550;-65
2023/06/20 02:47:03;;;;;;;14.20;9.00;;;;;;;22.15;100.00;100158.50;104961;1257;60412;-65
2023/06/20 02:49:36;;;;;;;12.40;8.70;;;;;;;22.59;100.00;100157.74;105028;1257;60570;-64
2023/06/20 02:52:26;;;;;;;12.40;7.90;;;;;;;23.04;100.00;100163.00;105174;1258;73776;-64
2023/06/20 02:55:04;;;;;;;10.00;7.80;;;;;;;23.63;100.00;100160.44;105303;1260;67202;-66
2023/06/20 02:57:31;;;;;;;12.50;8.50;;;;;;;24.30;100.00;100160.39;105004;1262;71134;-64
2023/06/20 03:00:09;;;;;;;14.70;8.00;;;;;;;24.87;100.00;100157.22;105068;1257;60435;-69
2023/06/20 03:02:49;;;;;;;10.50;7.80;;;;;;;25.39;93.99;100161.42;104886;1257;60609;-64
2023/06/20 03:05:17;;;;;;;12.30;8.40;;;;;;;25.76;86.15;100161.37;104897;1257;72729;-69
2023/06/20 03:07:45;;;;;;;12.00;8.00;;;;;;;26.21;79.24;100160.48;104998;1259;65898;-65
2023/06/20 03:10:12;;;;;;;12.10;7.60;;;;;;;26.67;70.49;100167.61;105060;1267;72533;-65
2023/06/20 03:12:40;;;;;;;12.60;7.40;;;;;;;27.02;63.18;100165.61;104793;1261;60474;-65
2023/06/20 03:15:07;;;;;;;11.70;7.50;;;;;;;27.28;57.21;100168.27;105358;1260;60522;-68
2023/06/20 03:17:35;;;;;;;10.80;7.80;;;;;;;27.49;52.59;100164.60;105078;1260;72649;-65
2023/06/20 03:20:05;;;;;;;12.20;8.60;;;;;;;27.79;50.57;100164.80;105127;1263;67311;-66
2023/06/20 03:22:32;;;;;;;13.50;8.20;;;;;;;28.27;49.02;100169.35;104716;1258;72676;-65
2023/06/20 03:25:01;;;;;;;16.10;9.40;;;;;;;28.85;47.46;100164.50;105453;1256;60536;-66
2023/06/20 03:27:28;;;;;;;11.50;8.60;;;;;;;29.36;45.32;100166.19;105115;1257;60981;-67
2023/06/20 03:29:56;;;;;;;10.40;7.80;;;;;;;29.71;43.52;100167.25;104931;1256;74584;-63
2023/06/20 03:32:23;;;;;;;12.60;7.80;;;;;;;29.88;42.59;100170.09;105044;1257;67412;-66
2023/06/20 03:34:50;;;;;;;14.00;8.30;;;;;;;30.07;42.00;100168.67;105418;1257;72092;-65
2023/06/20 03:37:17;;;;;;;11.10;8.20;;;;;;;30.47;40.67;100167.77;105072;1257;60938;-64
2023/06/20 03:39:44;;;;;;;14.60;8.90;;;;;;;30.83;39.35;100172.12;105589;1257;60617;-66
2023/06/20 03:42:11;;;;;;;10.30;7.20;;;;;;;31.12;38.24;100171.71;104970;1260;73618;-64
2023/06/20 03:44:38;;;;;;;9.50;7.20;;;;;;;31.35;37.24;100164.02;105014;1257;67233;-69
2023/06/20 03:47:06;;;;;;;10.60;6.90;;;;;;;31.41;35.60;100163.60;104661;1256;73214;-65
2023/06/20 03:49:33;;;;;;;10.00;6.50;;;;;;;31.34;35.47;100157.52;105070;1258;60478;-65
2023/06/20 03:52:01;;;;;;;10.70;7.10;;;;;;;31.32;35.32;100157.21;105162;1259;60947;-68
2023/06/20 03:54:28;;;;;;;10.50;7.30;;;;;;;31.25;34.83;100159.61;105275;1259;72948;-65
2023/06/20 03:56:55;;;;;;;9.90;6.50;;;;;;;31.10;34.48;100162.85;105586;1260;65974;-65
2023/06/20 03:59:22;;;;;;;11.10;7.50;;;;;;;31.06;34.75;100164.79;105080;1263;72574;-65
2023/06/20 04:01:50;;;;;;;10.60;7.40;;;;;;;31.28;34.03;100160.37;105009;1262;60629;-67
2023/06/20 04:04:18;;;;;;;10.60;6.30;;;;;;;31.38;32.79;100163.08;104995;1258;59565;-65
2023/06/20 04:06:49;;;;;;;12.00;8.10;;;;;;;31.36;32.81;100165.84;105080;1257;74389;-65
2023/06/20 04:09:17;;;;;;;9.00;6.90;;;;;;;31.44;32.23;100164.48;105654;1258;67126;-64
2023/06/20 04:11:45;;;;;;;12.70;8.30;;;;;;;31.50;31.72;100166.10;105350;1257;72741;-64
2023/06/20 04:14:13;;;;;;;9.70;7.80;;;;;;;31.47;30.89;100165.20;105602;1258;60831;-65
2023/06/20 04:16:40;;;;;;;10.70;8.30;;;;;;;31.46;30.03;100165.94;104996;1258;60898;-64
2023/06/20 04:19:08;;;;;;;10.70;7.30;;;;;;;31.26;29.59;100168.69;105410;1258;74523;-64
2023/06/20 04:21:35;;;;;;;10.30;7.50;;;;;;;31.09;29.67;100172.04;105518;1262;67027;-66
2023/06/20 04:24:03;;;;;;;11.40;8.30;;;;;;;31.01;29.73;100168.11;105116;1263;73293;-63
2023/06/20 04:26:30;;;;;;;11.50;7.80;;;;;;;31.02;29.72;100172.48;104949;1257;60496;-64
2023/06/20 04:28:57;;;;;;;10.00;7.90;;;;;;;31.17;29.84;100176.45;105749;1257;60463;-67
2023/06/20 04:31:25;;;;;;;9.40;6.90;;;;;;;31.38;29.39;100174.70;104971;1260;73663;-67
2023/06/20 04:33:54;;;;;;;7.60;6.10;;;;;;;31.58;29.25;100179.48;105272;1262;65717;-64
2023/06/20 04:36:21;;;;;;;10.70;7.20;;;;;;;31.81;28.97;100178.88;104997;1260;72598;-64
2023/06/20 04:38:51;;;;;;;9.20;6.70;;;;;;;32.38;29.01;100180.17;104886;1262;60637;-65
2023/06/20 04:41:18;;;;;;;9.50;6.90;;;;;;;32.70;28.09;100186.93;104891;1257;60298;-63
2023/06/20 04:43:49;;;;;;;13.20;6.80;;;;;;;32.95;27.94;100187.50;105054;1260;74196;-63
2023/06/20 04:46:16;;;;;;;8.10;5.90;;;;;;;33.32;27.35;100187.23;105279;1257;67365;-63
2023/06/20 04:48:45;;;;;;;10.80;7.00;;;;;;;33.69;26.72;100186.70;105170;1257;63340;-69
2023/06/20 04:51:13;;;;;;;8.90;6.20;;;;;;;33.99;26.19;100185.61;105517;1258;60552;-66
2023/06/20 04:53:41;;;;;;;9.60;5.80;;;;;;;34.31;25.63;100187.61;105111;1258;59261;-70
2023/06/20 04:56:08;;;;;;;9.80;5.90;;;;;;;34.73;24.81;100188.27;105408;1260;65226;-64
2023/06/20 04:58:36;;;;;;;6.10;5.20;;;;;;;35.11;24.42;100186.00;104957;1260;61240;-66
2023/06/20 05:01:03;;;;;;;8.00;6.10;;;;;;;35.43;24.29;100188.72;105053;1261;62859;-65
2023/06/20 05:03:30;;;;;;;8.20;4.90;;;;;;;35.65;23.71;100191.06;105241;1261;59096;-68
2023/06/20 05:05:57;;;;;;;9.20;6.40;;;;;;;35.72;23.70;100188.20;104817;1257;60557;-64
2023/06/20 05:08:27;;;;;;;8.10;6.00;;;;;;;35.94;23.85;100185.89;104956;1257;63976;-66
2023/06/20 05:10:54;;;;;;;7.80;5.70;;;;;;;36.43;23.31;100186.25;105071;1258;60474;-64
2023/06/20 05:13:21;;;;;;;8.40;5.40;;;;;;;36.74;22.41;100186.52;105469;1257;64077;-65
2023/06/20 05:15:50;;;;;;;9.20;5.20;;;;;;;36.89;22.44;100187.50;104853;1257;61162;-66
2023/06/20 05:18:18;;;;;;;9.50;6.30;;;;;;;37.00;21.68;100189.73;104996;1261;60504;-64
2023/06/20 05:20:45;;;;;;;7.40;5.60;;;;;;;36.98;21.88;100187.34;105165;1257;64042;-69
2023/06/20 05:23:12;;;;;;;9.00;5.70;;;;;;;37.12;21.73;100187.79;105464;1257;59262;-64
2023/06/20 05:25:39;;;;;;;7.50;5.10;;;;;;;37.31;21.57;100188.41;105342;1258;62654;-65
2023/06/20 05:28:06;;;;;;;6.80;5.10;;;;;;;37.73;21.34;100184.13;105036;1261;60518;-64
2023/06/20 05:30:34;;;;;;;7.80;5.40;;;;;;;38.16;20.93;100182.50;104903;1261;60393;-68
2023/06/20 05:33:01;;;;;;;9.90;5.90;;;;;;;38.49;20.64;100179.29;105442;1257;63825;-63
2023/06/20 05:35:28;;;;;;;7.50;5.70;;;;;;;38.80;20.57;100182.95;105263;1257;60371;-63
2023/06/20 05:37:55;;;;;;;8.70;5.30;;;;;;;38.74;19.98;100187.95;105238;1258;62853;-64
2023/06/20 05:40:22;;;;;;;8.80;5.50;;;;;;;38.62;20.19;100186.13;104959;1257;60313;-63
2023/06/20 05:42:50;;;;;;;8.20;5.00;;;;;;;38.63;20.02;100188.23;104918;1262;60909;-65
2023/06/20 05:45:17;;;;;;;9.10;5.80;;;;;;;38.73;19.54;100186.70;104940;1257;65083;-64
2023/06/20 05:47:44;;;;;;;6.30;4.70;;;;;;;39.11;19.26;100187.34;105176;1262;60346;-70
2023/06/20 05:50:12;;;;;;;12.60;9.90;;;;;;;39.40;18.83;100186.01;104911;1258;64660;-65
2023/06/20 05:52:39;;;;;;;8.40;5.70;;;;;;;39.61;18.55;100185.34;104901;1257;60474;-63
2023/06/20 05:55:07;;;;;;;7.30;5.10;;;;;;;39.67;18.22;100185.45;105356;1257;60451;-65
2023/06/20 05:57:34;;;;;;;10.40;4.40;;;;;;;39.78;17.76;100184.21;105432;1260;64157;-68
2023/06/20 06:00:01;;;;;;;5.70;4.30;;;;;;;39.79;17.47;100183.20;104890;1257;60537;-65
2023/06/20 06:02:29;;;;;;;6.00;4.40;;;;;;;39.52;17.60;100178.04;104922;1259;62845;-65
2023/06/20 06:04:56;;;;;;;5.80;4.10;;;;;;;39.55;17.71;100176.04;104932;1262;60468;-64
2023/06/20 06:07:23;;;;;;;8.00;4.10;;;;;;;39.57;17.72;100174.02;105156;1259;60302;-64
2023/06/20 06:09:50;;;;;;;8.00;4.40;;;;;;;39.54;18.22;100168.78;105227;1258;65164;-64
2023/06/20 06:12:17;;;;;;;7.50;4.40;;;;;;;39.29;18.37;100170.72;105009;1257;60435;-63
2023/06/20 06:14:44;;;;;;;6.50;4.20;;;;;;;38.99;18.58;100170.11;105280;1256;64177;-66
2023/06/20 06:17:11;;;;;;;8.80;4.00;;;;;;;38.96;18.50;100174.30;104905;1258;60349;-65
2023/06/20 06:19:39;;;;;;;6.30;4.20;;;;;;;39.07;18.30;100176.88;105248;1259;60507;-66
2023/06/20 06:22:06;;;;;;;5.50;4.10;;;;;;;39.21;18.30;100173.96;105025;1259;64069;-63
2023/06/20 06:24:34;;;;;;;6.10;3.90;;;;;;;38.99;18.30;100175.73;104953;1257;60477;-65
2023/06/20 06:27:01;;;;;;;5.40;3.30;;;;;;;38.95;18.40;100174.29;105412;1257;62700;-66
2023/06/20 06:29:28;;;;;;;7.90;3.50;;;;;;;39.12;18.05;100173.48;104991;1259;60340;-68
2023/06/20 06:31:55;;;;;;;6.40;4.00;;;;;;;39.27;18.47;100174.38;105613;1256;60433;-65
2023/06/20 06:34:22;;;;;;;6.30;4.30;;;;;;;39.29;18.19;100173.77;105014;1259;63783;-63
2023/06/20 06:36:49;;;;;;;6.40;4.30;;;;;;;38.91;17.52;100170.83;105241;1258;60438;-66
2023/06/20 06:39:18;;;;;;;6.40;4.30;;;;;;;38.48;17.99;100166.77;105072;1260;64064;-63
2023/06/20 06:41:46;;;;;;;7.10;3.80;;;;;;;38.28;18.10;100163.73;105331;1261;60446;-63
2023/06/20 06:44:13;;;;;;;4.40;3.40;;;;;;;38.24;17.62;100162.05;104881;1262;60369;-63
2023/06/20 06:46:40;;;;;;;3.80;2.60;;;;;;;38.17;17.92;100162.54;105489;1256;63831;-63
2023/06/20 06:49:08;;;;;;;4.10;2.40;;;;;;;38.05;17.53;100158.89;105100;1256;60508;-63
2023/06/20 06:51:37;;;;;;;3.30;2.10;;;;;;;37.83;17.08;100155.18;105336;1260;64039;-63
2023/06/20 06:54:04;;;;;;;4.80;2.20;;;;;;;37.55;16.62;100157.92;105493;1264;60429;-65
2023/06/20 06:56:31;;;;;;;5.70;3.00;;;;;;;37.35;17.45;100156.85;105027;1260;60465;-63
2023/06/20 06:59:00;;;;;;;3.60;2.40;;;;;;;37.41;17.75;100156.48;104817;1261;65227;-66
2023/06/20 07:01:28;;;;;;;4.80;2.90;;;;;;;37.19;17.39;100160.27;105228;1257;60549;-64
2023/06/20 07:03:56;;;;;;;4.60;2.20;;;;;;;37.08;17.81;100160.95;104849;1263;64181;-67
2023/06/20 07:06:23;;;;;;;4.00;1.90;;;;;;;36.91;17.06;100162.77;105232;1256;60552;-64
2023/06/20 07:08:52;;;;;;;4.20;2.10;;;;;;;36.47;17.30;100166.62;105734;1258;60439;-65
2023/06/20 07:11:19;;;;;;;5.10;2.40;;;;;;;36.01;17.97;100169.13;105122;1258;65247;-65
2023/06/20 07:13:46;;;;;;;4.40;2.70;;;;;;;35.60;18.84;100178.71;105191;1257;60594;-64
2023/06/20 07:16:13;;;;;;;4.10;2.60;;;;;;;35.45;19.63;100177.73;105099;1257;62776;-66
2023/06/20 07:18:40;;;;;;;5.00;2.30;;;;;;;35.56;19.60;100176.23;105463;1257;60547;-65
2023/06/20 07:21:07;;;;;;;5.00;2.50;;;;;;;35.72;19.48;100176.95;105319;1257;60547;-65
2023/06/20 07:23:35;;;;;;;3.00;2.00;;;;;;;35.74;19.23;100175.38;105139;1257;63872;-65
2023/06/20 07:26:02;;;;;;;4.20;2.00;;;;;;;35.46;19.10;100179.00;105361;1261;60441;-69
2023/06/20 07:28:29;;;;;;;3.50;1.90;;;;;;;35.07;19.42;100178.55;105508;1257;71754;-64
2023/06/20 07:30:56;;;;;;;2.70;2.00;;;;;;;34.89;19.17;100181.41;105364;1256;60426;-67
2023/06/20 07:33:24;;;;;;;4.10;2.50;;;;;;;34.83;19.38;100179.63;105317;1260;60608;-64
2023/06/20 07:35:51;;;;;;;4.10;2.10;;;;;;;34.64;19.57;100175.28;105123;1256;64056;-64
2023/06/20 07:38:17;;;;;;;4.80;2.30;;;;;;;34.61;19.87;100176.27;105513;1258;66381;-67
2023/06/20 07:40:46;;;;;;;3.30;2.20;;;;;;;34.63;19.61;100173.09;104959;1260;64028;-68
2023/06/20 07:43:13;;;;;;;3.80;1.90;;;;;;;34.70;19.03;100172.88;105455;1260;60546;-65
2023/06/20 07:45:40;;;;;;;3.90;2.10;;;;;;;34.82;19.48;100175.75;105108;1257;60473;-64
2023/06/20 07:48:07;;;;;;;3.60;2.60;;;;;;;34.74;19.91;100175.22;105087;1256;72044;-65
2023/06/20 07:50:35;;;;;;;3.90;2.20;;;;;;;34.58;19.56;100172.48;105655;1256;60550;-67
2023/06/20 07:53:02;;;;;;;3.60;2.60;;;;;;;34.46;19.11;100169.52;104787;1257;64620;-65
2023/06/20 07:55:30;;;;;;;3.20;2.60;;;;;;;34.66;19.73;100166.89;105268;1263;60528;-67
2023/06/20 07:57:58;;;;;;;3.80;2.40;;;;;;;34.87;19.77;100165.96;105268;1257;60531;-68
2023/06/20 08:00:27;;;;;;;5.00;2.40;;;;;;;34.76;19.03;100163.38;105169;1260;75919;-64
2023/06/20 08:02:54;;;;;;;4.10;2.20;;;;;;;34.48;19.75;100164.94;105160;1256;67717;-68
2023/06/20 08:05:21;;;;;;;6.30;3.10;;;;;;;34.24;20.07;100160.96;104913;1262;71320;-64
2023/06/20 08:07:49;;;;;;;4.70;2.50;;;;;;;34.21;20.33;100163.60;104961;1257;60522;-65
2023/06/20 08:10:17;;;;;;;4.10;2.60;;;;;;;33.99;20.87;100165.44;104991;1257;61045;-64
2023/06/20 08:12:45;;;;;;;4.40;3.10;;;;;;;33.65;21.09;100162.86;105206;1258;74357;-68
2023/06/20 08:15:12;;;;;;;5.10;3.10;;;;;;;33.33;21.06;100163.71;105194;1259;65975;-64
2023/06/20 08:17:39;;;;;;;3.50;2.70;;;;;;;33.11;21.65;100164.35;104916;1257;72740;-64
2023/06/20 08:20:09;;;;;;;5.60;2.90;;;;;;;33.22;21.80;100160.14;104960;1262;60434;-64
2023/06/20 08:22:36;;;;;;;5.40;2.90;;;;;;;33.50;21.40;100160.27;105125;1258;60752;-66
2023/06/20 08:25:04;;;;;;;5.30;2.90;;;;;;;33.88;21.17;100154.05;105024;1257;74195;-66
2023/06/20 08:27:32;;;;;;;4.00;2.60;;;;;;;33.96;20.62;100152.34;105425;1260;60446;-65
2023/06/20 08:29:59;;;;;;;3.50;2.70;;;;;;;34.06;21.08;100148.65;105043;1256;72771;-64
2023/06/20 08:32:27;;;;;;;5.90;3.00;;;;;;;34.11;20.73;100149.09;104951;1256;60439;-64
2023/06/20 08:34:54;;;;;;;4.90;2.70;;;;;;;34.02;20.95;100145.89;105846;1256;61120;-65
2023/06/20 08:37:24;;;;;;;4.70;3.00;;;;;;;33.92;21.33;100144.13;104980;1260;73172;-65
2023/06/20 08:39:51;;;;;;;7.20;3.10;;;;;;;33.90;20.84;100143.05;105101;1256;67203;-64
2023/06/20 08:42:19;;;;;;;5.80;3.10;;;;;;;33.69;20.89;100141.77;105018;1256;71057;-64
2023/06/20 08:44:46;;;;;;;4.60;2.80;;;;;;;33.67;21.44;100130.48;105469;1256;60532;-65
2023/06/20 08:47:25;;;;;;;4.70;2.80;;;;;;;33.91;21.47;100127.48;104899;1258;60470;-64
2023/06/20 08:49:52;;;;;;;5.30;3.50;;;;;;;34.20;21.02;100128.63;105168;1260;74136;-65
2023/06/20 08:52:24;;;;;;;6.90;3.30;;;;;;;34.27;20.81;100126.66;105300;1256;60488;-66
2023/06/20 08:54:51;;;;;;;4.10;2.80;;;;;;;34.00;20.89;100121.80;104923;1258;63195;-67
2023/06/20 08:57:20;;;;;;;5.90;2.90;;;;;;;33.60;21.05;100123.40;105186;1262;60574;-66
2023/06/20 08:59:47;;;;;;;6.40;4.00;;;;;;;33.25;21.90;100124.50;105069;1260;60356;-64
2023/06/20 09:02:14;;;;;;;7.00;4.20;;;;;;;33.17;22.19;100126.09;105209;1256;73560;-66
2023/06/20 09:04:42;;;;;;;6.40;4.40;;;;;;;33.28;22.54;100125.59;105037;1257;60386;-63
2023/06/20 09:07:16;;;;;;;5.20;3.40;;;;;;;33.53;22.11;100126.30;105268;1257;70984;-67
2023/06/20 09:09:44;;;;;;;6.90;4.20;;;;;;;33.59;22.44;100127.72;105307;1258;60443;-65
2023/06/20 09:12:12;;;;;;;5.30;3.30;;;;;;;33.57;22.75;100128.57;105437;1256;60719;-67
2023/06/20 09:14:40;;;;;;;5.50;2.80;;;;;;;33.80;22.22;100128.70;105702;1257;74321;-65
2023/06/20 09:17:08;;;;;;;6.80;3.30;;;;;;;34.09;21.96;100125.83;105699;1259;60588;-67
2023/06/20 09:19:44;;;;;;;4.70;3.40;;;;;;;34.40;21.92;100129.77;105384;1262;212822;-65
2023/06/20 09:22:12;;;;;;;5.10;3.10;;;;;;;34.68;21.26;100129.34;104994;1264;60304;-64
2023/06/20 09:24:42;;;;;;;5.00;2.70;;;;;;;34.87;21.20;100127.58;105327;1256;60317;-64
2023/06/20 09:27:09;;;;;;;5.70;3.10;;;;;;;35.24;20.47;100129.33;105520;1257;64203;-67
2023/06/20 09:29:52;;;;;;;6.20;2.70;;;;;;;35.19;20.04;100127.81;105578;1257;60367;-64
2023/06/20 09:32:22;;;;;;;6.30;3.30;;;;;;;34.96;20.18;100123.93;105309;1256;63985;-64
2023/06/20 09:34:50;;;;;;;6.00;3.40;;;;;;;34.80;20.62;100125.47;105151;1264;60687;-64
2023/06/20 09:37:17;;;;;;;5.60;2.80;;;;;;;34.47;20.63;100129.64;105376;1257;60411;-64
2023/06/20 09:39:44;;;;;;;3.90;2.60;;;;;;;33.98;20.61;100120.20;105212;1257;72847;-65
2023/06/20 09:42:14;;;;;;;5.30;3.00;;;;;;;33.79;21.14;100119.57;105524;1260;59339;-65
2023/06/20 09:44:41;;;;;;;4.00;2.90;;;;;;;33.82;21.31;100122.81;105404;1256;65644;-64
2023/06/20 09:47:08;;;;;;;5.50;3.30;;;;;;;33.56;21.50;100118.59;105500;1259;60411;-67
2023/06/20 09:49:36;;;;;;;5.30;2.90;;;;;;;33.31;21.65;100111.23;105415;1256;60449;-64
2023/06/20 09:52:07;;;;;;;6.10;3.20;;;;;;;33.33;21.33;100108.93;105551;1264;64111;-65
2023/06/20 09:54:49;;;;;;;4.60;3.20;;;;;;;33.42;21.65;100105.27;105240;1257;67098;-63
2023/06/20 09:57:18;;;;;;;4.60;2.50;;;;;;;33.71;22.22;100109.15;105411;1256;72358;-63
2023/06/20 09:59:45;;;;;;;4.90;3.30;;;;;;;33.91;21.88;100111.42;105556;1259;60549;-68
2023/06/20 10:02:13;;;;;;;4.30;2.80;;;;;;;33.87;22.11;100106.81;105719;1261;60449;-63
2023/06/20 10:04:42;;;;;;;5.70;2.60;;;;;;;34.01;22.31;100109.39;105202;1256;73128;-65
2023/06/20 10:07:15;;;;;;;5.70;3.20;;;;;;;34.14;21.59;100110.05;105613;1258;60481;-62
2023/06/20 10:09:42;;;;;;;5.70;3.20;;;;;;;34.24;21.23;100105.45;105572;1256;73055;-63
2023/06/20 10:12:10;;;;;;;6.40;3.00;;;;;;;34.31;20.78;100103.86;105263;1257;60529;-61
2023/06/20 10:14:37;;;;;;;4.40;3.20;;;;;;;34.26;20.54;100103.42;105456;1256;60467;-65
2023/06/20 10:17:08;;;;;;;6.60;3.50;;;;;;;34.23;21.19;100101.95;105171;1257;64070;-66
2023/06/20 10:19:47;;;;;;;5.60;3.40;;;;;;;34.37;21.91;100103.02;105454;1264;67678;-65
2023/06/20 10:22:15;;;;;;;4.50;3.20;;;;;;;34.42;20.82;100104.31;105512;1263;72241;-67
2023/06/20 10:24:42;;;;;;;5.10;3.30;;;;;;;34.30;20.91;100099.27;105260;1262;60374;-66
2023/06/20 10:27:09;;;;;;;4.70;3.20;;;;;;;34.26;21.22;100096.87;105542;1256;60973;-65
2023/06/20 10:29:40;;;;;;;5.10;3.30;;;;;;;34.50;21.88;100094.16;105365;1259;65219;-66
2023/06/20 10:32:08;;;;;;;6.00;3.80;;;;;;;35.09;21.32;100085.45;105322;1261;60531;-65
2023/06/20 10:34:36;;;;;;;4.50;3.10;;;;;;;35.68;20.65;100081.95;105236;1259;62989;-65
2023/06/20 10:37:34;;;;;;;5.00;2.80;;;;;;;35.93;20.06;100083.55;105723;1262;60425;-65
2023/06/20 10:40:04;;;;;;;4.70;3.50;;;;;;;35.78;20.21;100081.62;105567;1262;60355;-66
2023/06/20 10:42:41;;;;;;;4.50;3.00;;;;;;;35.61;20.69;100078.27;105235;1256;65664;-66
2023/06/20 10:45:18;;;;;;;4.70;3.20;;;;;;;35.42;21.02;100079.64;105028;1257;59615;-66
2023/06/20 10:47:46;;;;;;;5.40;3.40;;;;;;;35.00;21.07;100087.64;104831;1257;66025;-65
2023/06/20 10:50:14;;;;;;;6.10;3.80;;;;;;;34.70;21.36;100088.88;105097;1256;60385;-66
2023/06/20 10:52:41;;;;;;;5.20;3.40;;;;;;;34.72;21.38;100085.04;105041;1256;60493;-65
2023/06/20 10:55:29;;;;;;;6.60;3.50;;;;;;;34.82;21.24;100081.49;105093;1259;73783;-65
2023/06/20 10:57:56;;;;;;;5.50;2.90;;;;;;;34.80;21.12;100083.77;105048;1260;60439;-65
2023/06/20 11:00:23;;;;;;;4.90;3.20;;;;;;;34.72;21.29;100080.72;105303;1256;63868;-64
2023/06/20 11:02:54;;;;;;;6.50;3.50;;;;;;;34.46;20.98;100079.42;105014;1260;60432;-65
2023/06/20 11:05:26;;;;;;;5.80;3.20;;;;;;;34.14;21.14;100075.83;105091;1257;60550;-65
2023/06/20 11:07:53;;;;;;;4.20;3.00;;;;;;;33.92;21.41;100071.43;105008;1257;65099;-65
2023/06/20 11:10:26;;;;;;;5.20;3.50;;;;;;;33.84;22.27;100066.48;105197;1259;60432;-65
2023/06/20 11:12:55;;;;;;;5.00;3.20;;;;;;;33.91;23.00;100066.89;104954;1256;63961;-65
2023/06/20 11:15:23;;;;;;;4.60;3.20;;;;;;;34.11;22.82;100066.23;105199;1256;60344;-65
2023/06/20 11:17:50;;;;;;;5.20;3.10;;;;;;;34.32;22.09;100061.60;105566;1260;60416;-64
2023/06/20 11:20:20;;;;;;;6.10;2.90;;;;;;;34.45;21.88;100061.41;105221;1261;66952;-64